sensor_id;sensor_type;location;lat;lon;timestamp;temperature;humidity
19403;DHT22;9837;48.888;8.998;2023-04-26T00:02:10;12.30;59.50
19403;DHT22;9837;48.888;8.998;2023-04-26T00:04:38;12.40;59.60
19403;DHT22;9837;48.888;8.998;2023-04-26T00:07:04;12.30;59.60
19403;DHT22;9837;48.888;8.998;2023-04-26T00:09:30;12.30;59.60
19403;DHT22;9837;48.888;8.998;2023-04-26T00:11:56;12.30;59.90
19403;DHT22;9837;48.888;8.998;2023-04-26T00:14:22;12.30;59.90
19403;DHT22;9837;48.888;8.998;2023-04-26T00:16:47;12.30;60.00
19403;DHT22;9837;48.888;8.998;2023-04-26T00:19:13;12.30;60.00
19403;DHT22;9837;48.888;8.998;2023-04-26T00:21:39;12.30;60.00
19403;DHT22;9837;48.888;8.998;2023-04-26T00:24:04;12.30;60.00
19403;DHT22;9837;48.888;8.998;2023-04-26T00:26:30;12.20;59.90
19403;DHT22;9837;48.888;8.998;2023-04-26T00:28:56;12.10;60.00
19403;DHT22;9837;48.888;8.998;2023-04-26T00:31:22;12.00;60.40
19403;DHT22;9837;48.888;8.998;2023-04-26T00:33:47;12.00;61.10
19403;DHT22;9837;48.888;8.998;2023-04-26T00:36:13;12.00;61.00
19403;DHT22;9837;48.888;8.998;2023-04-26T00:38:39;12.00;60.90
19403;DHT22;9837;48.888;8.998;2023-04-26T00:41:05;12.00;61.00
19403;DHT22;9837;48.888;8.998;2023-04-26T00:45:57;12.00;61.20
19403;DHT22;9837;48.888;8.998;2023-04-26T00:48:23;11.90;61.20
19403;DHT22;9837;48.888;8.998;2023-04-26T00:50:48;12.00;61.90
19403;DHT22;9837;48.888;8.998;2023-04-26T00:53:15;11.90;60.90
19403;DHT22;9837;48.888;8.998;2023-04-26T00:55:42;11.80;60.60
19403;DHT22;9837;48.888;8.998;2023-04-26T00:58:07;11.80;60.70
19403;DHT22;9837;48.888;8.998;2023-04-26T01:00:33;11.70;60.80
19403;DHT22;9837;48.888;8.998;2023-04-26T01:02:59;11.80;60.90
19403;DHT22;9837;48.888;8.998;2023-04-26T01:05:24;11.80;60.80
19403;DHT22;9837;48.888;8.998;2023-04-26T01:07:50;11.80;60.70
19403;DHT22;9837;48.888;8.998;2023-04-26T01:10:16;11.80;60.60
19403;DHT22;9837;48.888;8.998;2023-04-26T01:12:42;11.80;60.50
19403;DHT22;9837;48.888;8.998;2023-04-26T01:15:09;11.80;61.30
19403;DHT22;9837;48.888;8.998;2023-04-26T01:17:35;11.70;60.70
19403;DHT22;9837;48.888;8.998;2023-04-26T01:20:03;11.60;60.90
19403;DHT22;9837;48.888;8.998;2023-04-26T01:22:32;11.60;60.90
19403;DHT22;9837;48.888;8.998;2023-04-26T01:24:58;11.50;61.10
19403;DHT22;9837;48.888;8.998;2023-04-26T01:27:25;11.50;61.20
19403;DHT22;9837;48.888;8.998;2023-04-26T01:29:51;11.40;61.30
19403;DHT22;9837;48.888;8.998;2023-04-26T01:32:17;11.40;61.60
19403;DHT22;9837;48.888;8.998;2023-04-26T01:34:42;11.30;61.80
19403;DHT22;9837;48.888;8.998;2023-04-26T01:37:08;11.20;62.00
19403;DHT22;9837;48.888;8.998;2023-04-26T01:39:34;11.20;61.90
19403;DHT22;9837;48.888;8.998;2023-04-26T01:42:01;11.20;62.30
19403;DHT22;9837;48.888;8.998;2023-04-26T01:44:27;11.10;62.60
19403;DHT22;9837;48.888;8.998;2023-04-26T01:46:52;11.10;62.80
19403;DHT22;9837;48.888;8.998;2023-04-26T01:49:18;11.10;62.90
19403;DHT22;9837;48.888;8.998;2023-04-26T01:51:44;11.10;63.30
19403;DHT22;9837;48.888;8.998;2023-04-26T01:54:09;11.20;63.50
19403;DHT22;9837;48.888;8.998;2023-04-26T01:56:35;11.20;63.80
19403;DHT22;9837;48.888;8.998;2023-04-26T01:59:00;11.30;64.00
19403;DHT22;9837;48.888;8.998;2023-04-26T02:01:26;11.10;64.50
19403;DHT22;9837;48.888;8.998;2023-04-26T02:03:52;11.10;64.90
19403;DHT22;9837;48.888;8.998;2023-04-26T02:06:17;11.20;65.00
19403;DHT22;9837;48.888;8.998;2023-04-26T02:08:44;11.20;65.00
19403;DHT22;9837;48.888;8.998;2023-04-26T02:11:10;11.20;65.20
19403;DHT22;9837;48.888;8.998;2023-04-26T02:13:36;11.10;65.60
19403;DHT22;9837;48.888;8.998;2023-04-26T02:16:02;11.20;65.80
19403;DHT22;9837;48.888;8.998;2023-04-26T02:18:28;11.20;65.70
19403;DHT22;9837;48.888;8.998;2023-04-26T02:20:54;11.10;65.90
19403;DHT22;9837;48.888;8.998;2023-04-26T02:23:20;11.10;66.10
19403;DHT22;9837;48.888;8.998;2023-04-26T02:25:46;11.10;66.10
19403;DHT22;9837;48.888;8.998;2023-04-26T02:28:12;11.10;66.10
19403;DHT22;9837;48.888;8.998;2023-04-26T02:30:37;11.20;66.30
19403;DHT22;9837;48.888;8.998;2023-04-26T02:35:29;11.20;65.80
19403;DHT22;9837;48.888;8.998;2023-04-26T02:37:54;11.20;65.90
19403;DHT22;9837;48.888;8.998;2023-04-26T02:40:20;11.10;66.00
19403;DHT22;9837;48.888;8.998;2023-04-26T02:42:48;11.10;66.30
19403;DHT22;9837;48.888;8.998;2023-04-26T02:45:13;11.10;66.70
19403;DHT22;9837;48.888;8.998;2023-04-26T02:47:39;11.10;67.40
19403;DHT22;9837;48.888;8.998;2023-04-26T02:50:05;11.00;66.90
19403;DHT22;9837;48.888;8.998;2023-04-26T02:52:35;11.10;67.20
19403;DHT22;9837;48.888;8.998;2023-04-26T02:55:02;11.10;67.50
19403;DHT22;9837;48.888;8.998;2023-04-26T02:57:29;11.00;67.30
19403;DHT22;9837;48.888;8.998;2023-04-26T02:59:54;11.10;67.30
19403;DHT22;9837;48.888;8.998;2023-04-26T03:02:20;11.00;67.60
19403;DHT22;9837;48.888;8.998;2023-04-26T03:04:46;11.00;68.30
19403;DHT22;9837;48.888;8.998;2023-04-26T03:07:12;10.90;67.70
19403;DHT22;9837;48.888;8.998;2023-04-26T03:09:37;10.90;67.50
19403;DHT22;9837;48.888;8.998;2023-04-26T03:12:07;10.90;68.20
19403;DHT22;9837;48.888;8.998;2023-04-26T03:14:33;10.90;67.50
19403;DHT22;9837;48.888;8.998;2023-04-26T03:16:59;10.90;68.10
19403;DHT22;9837;48.888;8.998;2023-04-26T03:19:25;10.80;67.50
19403;DHT22;9837;48.888;8.998;2023-04-26T03:21:52;10.80;67.60
19403;DHT22;9837;48.888;8.998;2023-04-26T03:24:18;10.70;67.60
19403;DHT22;9837;48.888;8.998;2023-04-26T03:26:43;10.80;68.40
19403;DHT22;9837;48.888;8.998;2023-04-26T03:29:09;10.80;67.60
19403;DHT22;9837;48.888;8.998;2023-04-26T03:31:35;10.80;67.60
19403;DHT22;9837;48.888;8.998;2023-04-26T03:34:00;10.80;68.30
19403;DHT22;9837;48.888;8.998;2023-04-26T03:36:26;10.70;67.30
19403;DHT22;9837;48.888;8.998;2023-04-26T03:38:53;10.70;67.40
19403;DHT22;9837;48.888;8.998;2023-04-26T03:41:19;10.70;67.30
19403;DHT22;9837;48.888;8.998;2023-04-26T03:43:44;10.60;67.30
19403;DHT22;9837;48.888;8.998;2023-04-26T03:46:10;10.60;67.20
19403;DHT22;9837;48.888;8.998;2023-04-26T03:48:35;10.60;67.90
19403;DHT22;9837;48.888;8.998;2023-04-26T03:51:01;10.60;67.20
19403;DHT22;9837;48.888;8.998;2023-04-26T03:55:53;10.50;67.40
19403;DHT22;9837;48.888;8.998;2023-04-26T03:58:18;10.50;67.50
19403;DHT22;9837;48.888;8.998;2023-04-26T04:00:44;10.50;67.70
19403;DHT22;9837;48.888;8.998;2023-04-26T04:03:10;10.50;68.40
19403;DHT22;9837;48.888;8.998;2023-04-26T04:05:36;10.50;68.50
19403;DHT22;9837;48.888;8.998;2023-04-26T04:08:01;10.50;68.00
19403;DHT22;9837;48.888;8.998;2023-04-26T04:10:28;10.50;68.10
19403;DHT22;9837;48.888;8.998;2023-04-26T04:12:53;10.50;68.10
19403;DHT22;9837;48.888;8.998;2023-04-26T04:15:19;10.50;68.30
19403;DHT22;9837;48.888;8.998;2023-04-26T04:17:45;10.50;68.40
19403;DHT22;9837;48.888;8.998;2023-04-26T04:20:11;10.50;68.30
19403;DHT22;9837;48.888;8.998;2023-04-26T04:25:08;10.60;68.10
19403;DHT22;9837;48.888;8.998;2023-04-26T04:27:35;10.60;68.10
19403;DHT22;9837;48.888;8.998;2023-04-26T04:30:01;10.60;68.30
19403;DHT22;9837;48.888;8.998;2023-04-26T04:32:28;10.70;68.10
19403;DHT22;9837;48.888;8.998;2023-04-26T04:34:53;10.70;68.10
19403;DHT22;9837;48.888;8.998;2023-04-26T04:37:19;10.70;68.00
19403;DHT22;9837;48.888;8.998;2023-04-26T04:39:45;10.70;68.00
19403;DHT22;9837;48.888;8.998;2023-04-26T04:42:11;10.80;67.90
19403;DHT22;9837;48.888;8.998;2023-04-26T04:44:37;10.70;67.60
19403;DHT22;9837;48.888;8.998;2023-04-26T04:47:02;10.80;67.50
19403;DHT22;9837;48.888;8.998;2023-04-26T04:51:55;10.80;67.70
19403;DHT22;9837;48.888;8.998;2023-04-26T04:54:21;10.90;67.80
19403;DHT22;9837;48.888;8.998;2023-04-26T04:56:47;11.00;67.80
19403;DHT22;9837;48.888;8.998;2023-04-26T05:01:38;11.00;67.40
19403;DHT22;9837;48.888;8.998;2023-04-26T05:04:05;11.10;67.40
19403;DHT22;9837;48.888;8.998;2023-04-26T05:06:31;11.20;66.80
19403;DHT22;9837;48.888;8.998;2023-04-26T05:08:57;11.30;66.70
19403;DHT22;9837;48.888;8.998;2023-04-26T05:11:23;11.40;66.50
19403;DHT22;9837;48.888;8.998;2023-04-26T05:13:50;11.50;66.20
19403;DHT22;9837;48.888;8.998;2023-04-26T05:16:15;11.60;65.70
19403;DHT22;9837;48.888;8.998;2023-04-26T05:18:41;11.70;65.40
19403;DHT22;9837;48.888;8.998;2023-04-26T05:21:07;11.90;65.10
19403;DHT22;9837;48.888;8.998;2023-04-26T05:26:03;12.20;63.70
19403;DHT22;9837;48.888;8.998;2023-04-26T05:28:31;12.40;64.20
19403;DHT22;9837;48.888;8.998;2023-04-26T05:30:58;12.80;62.90
19403;DHT22;9837;48.888;8.998;2023-04-26T05:33:24;13.70;60.80
19403;DHT22;9837;48.888;8.998;2023-04-26T05:40:42;15.50;54.90
19403;DHT22;9837;48.888;8.998;2023-04-26T05:43:08;16.00;53.60
19403;DHT22;9837;48.888;8.998;2023-04-26T05:45:34;16.20;52.80
19403;DHT22;9837;48.888;8.998;2023-04-26T05:47:59;16.50;52.40
19403;DHT22;9837;48.888;8.998;2023-04-26T05:50:25;17.50;51.30
19403;DHT22;9837;48.888;8.998;2023-04-26T05:52:51;19.10;47.60
19403;DHT22;9837;48.888;8.998;2023-04-26T05:55:16;19.20;47.90
19403;DHT22;9837;48.888;8.998;2023-04-26T06:00:10;22.80;39.80
19403;DHT22;9837;48.888;8.998;2023-04-26T06:07:31;25.30;35.10
19403;DHT22;9837;48.888;8.998;2023-04-26T06:09:56;26.30;33.00
19403;DHT22;9837;48.888;8.998;2023-04-26T06:14:48;27.10;32.70
19403;DHT22;9837;48.888;8.998;2023-04-26T06:17:13;27.90;31.30
19403;DHT22;9837;48.888;8.998;2023-04-26T06:19:39;28.50;29.60
19403;DHT22;9837;48.888;8.998;2023-04-26T06:22:04;29.00;29.30
19403;DHT22;9837;48.888;8.998;2023-04-26T06:24:30;29.30;28.80
19403;DHT22;9837;48.888;8.998;2023-04-26T06:26:55;29.80;28.10
19403;DHT22;9837;48.888;8.998;2023-04-26T06:29:21;29.90;27.40
19403;DHT22;9837;48.888;8.998;2023-04-26T06:31:47;29.80;26.90
19403;DHT22;9837;48.888;8.998;2023-04-26T06:34:12;29.50;27.40
19403;DHT22;9837;48.888;8.998;2023-04-26T06:36:38;29.20;26.40
19403;DHT22;9837;48.888;8.998;2023-04-26T06:39:03;29.20;25.30
19403;DHT22;9837;48.888;8.998;2023-04-26T06:41:29;29.40;24.80
19403;DHT22;9837;48.888;8.998;2023-04-26T06:43:54;29.30;26.00
19403;DHT22;9837;48.888;8.998;2023-04-26T06:48:46;27.80;26.10
19403;DHT22;9837;48.888;8.998;2023-04-26T06:51:11;27.20;27.60
19403;DHT22;9837;48.888;8.998;2023-04-26T06:53:37;27.10;28.30
19403;DHT22;9837;48.888;8.998;2023-04-26T06:56:03;26.30;28.70
19403;DHT22;9837;48.888;8.998;2023-04-26T06:58:28;25.80;30.50
19403;DHT22;9837;48.888;8.998;2023-04-26T07:00:54;25.50;29.90
19403;DHT22;9837;48.888;8.998;2023-04-26T07:03:19;25.10;31.90
19403;DHT22;9837;48.888;8.998;2023-04-26T07:05:45;25.20;30.30
19403;DHT22;9837;48.888;8.998;2023-04-26T07:08:10;25.10;31.30
19403;DHT22;9837;48.888;8.998;2023-04-26T07:10:38;24.30;32.10
19403;DHT22;9837;48.888;8.998;2023-04-26T07:15:29;23.00;32.30
19403;DHT22;9837;48.888;8.998;2023-04-26T07:17:56;22.00;34.10
19403;DHT22;9837;48.888;8.998;2023-04-26T07:22:48;21.40;36.60
19403;DHT22;9837;48.888;8.998;2023-04-26T07:25:15;21.20;36.00
19403;DHT22;9837;48.888;8.998;2023-04-26T07:27:40;20.50;34.90
19403;DHT22;9837;48.888;8.998;2023-04-26T07:30:07;19.70;37.60
19403;DHT22;9837;48.888;8.998;2023-04-26T07:32:32;19.50;37.80
19403;DHT22;9837;48.888;8.998;2023-04-26T07:34:58;19.20;38.90
19403;DHT22;9837;48.888;8.998;2023-04-26T07:37:23;18.70;35.80
19403;DHT22;9837;48.888;8.998;2023-04-26T07:42:15;18.80;38.20
19403;DHT22;9837;48.888;8.998;2023-04-26T07:44:40;18.00;38.30
19403;DHT22;9837;48.888;8.998;2023-04-26T07:47:12;17.10;40.00
19403;DHT22;9837;48.888;8.998;2023-04-26T07:49:38;17.10;42.80
19403;DHT22;9837;48.888;8.998;2023-04-26T07:52:04;17.50;42.50
19403;DHT22;9837;48.888;8.998;2023-04-26T07:54:29;17.60;40.80
19403;DHT22;9837;48.888;8.998;2023-04-26T07:56:55;18.00;39.60
19403;DHT22;9837;48.888;8.998;2023-04-26T07:59:21;18.50;39.30
19403;DHT22;9837;48.888;8.998;2023-04-26T08:01:48;18.40;38.40
19403;DHT22;9837;48.888;8.998;2023-04-26T08:06:40;18.60;39.30
19403;DHT22;9837;48.888;8.998;2023-04-26T08:09:09;18.50;37.50
19403;DHT22;9837;48.888;8.998;2023-04-26T08:11:35;18.40;39.00
19403;DHT22;9837;48.888;8.998;2023-04-26T08:14:01;18.80;38.00
19403;DHT22;9837;48.888;8.998;2023-04-26T08:16:26;19.10;37.30
19403;DHT22;9837;48.888;8.998;2023-04-26T08:18:52;19.30;37.90
19403;DHT22;9837;48.888;8.998;2023-04-26T08:21:17;18.90;37.60
19403;DHT22;9837;48.888;8.998;2023-04-26T08:26:09;18.70;37.10
19403;DHT22;9837;48.888;8.998;2023-04-26T08:28:35;18.30;37.10
19403;DHT22;9837;48.888;8.998;2023-04-26T08:31:00;17.90;37.50
19403;DHT22;9837;48.888;8.998;2023-04-26T08:33:26;18.00;38.00
19403;DHT22;9837;48.888;8.998;2023-04-26T08:35:51;18.10;36.80
19403;DHT22;9837;48.888;8.998;2023-04-26T08:40:45;18.00;37.20
19403;DHT22;9837;48.888;8.998;2023-04-26T08:43:13;18.20;38.30
19403;DHT22;9837;48.888;8.998;2023-04-26T08:45:40;18.40;36.30
19403;DHT22;9837;48.888;8.998;2023-04-26T08:48:09;18.20;38.50
19403;DHT22;9837;48.888;8.998;2023-04-26T08:50:39;18.50;38.40
19403;DHT22;9837;48.888;8.998;2023-04-26T08:53:06;19.10;37.30
19403;DHT22;9837;48.888;8.998;2023-04-26T08:55:32;19.80;36.30
19403;DHT22;9837;48.888;8.998;2023-04-26T08:58:00;20.20;34.20
19403;DHT22;9837;48.888;8.998;2023-04-26T09:02:53;19.80;32.70
19403;DHT22;9837;48.888;8.998;2023-04-26T09:05:19;19.50;33.90
19403;DHT22;9837;48.888;8.998;2023-04-26T09:07:49;19.60;35.60
19403;DHT22;9837;48.888;8.998;2023-04-26T09:10:20;19.90;34.20
19403;DHT22;9837;48.888;8.998;2023-04-26T09:12:50;19.90;34.60
19403;DHT22;9837;48.888;8.998;2023-04-26T09:15:16;19.80;34.80
19403;DHT22;9837;48.888;8.998;2023-04-26T09:17:41;19.40;34.70
19403;DHT22;9837;48.888;8.998;2023-04-26T09:22:43;19.60;35.00
19403;DHT22;9837;48.888;8.998;2023-04-26T09:25:10;19.60;35.70
19403;DHT22;9837;48.888;8.998;2023-04-26T09:27:39;19.60;36.30
19403;DHT22;9837;48.888;8.998;2023-04-26T09:32:46;19.20;35.30
19403;DHT22;9837;48.888;8.998;2023-04-26T09:35:30;19.00;37.10
19403;DHT22;9837;48.888;8.998;2023-04-26T09:38:03;19.10;36.50
19403;DHT22;9837;48.888;8.998;2023-04-26T09:40:32;19.00;35.90
19403;DHT22;9837;48.888;8.998;2023-04-26T09:43:07;18.80;35.70
19403;DHT22;9837;48.888;8.998;2023-04-26T09:45:47;18.20;37.10
19403;DHT22;9837;48.888;8.998;2023-04-26T09:48:18;17.80;38.20
19403;DHT22;9837;48.888;8.998;2023-04-26T09:50:45;17.70;38.10
19403;DHT22;9837;48.888;8.998;2023-04-26T09:55:53;17.40;38.60
19403;DHT22;9837;48.888;8.998;2023-04-26T09:58:19;17.20;39.40
19403;DHT22;9837;48.888;8.998;2023-04-26T10:00:45;17.00;39.60
19403;DHT22;9837;48.888;8.998;2023-04-26T10:03:12;17.20;40.20
19403;DHT22;9837;48.888;8.998;2023-04-26T10:05:39;17.20;40.70
19403;DHT22;9837;48.888;8.998;2023-04-26T10:08:05;17.70;38.40
19403;DHT22;9837;48.888;8.998;2023-04-26T10:10:31;17.60;39.00
19403;DHT22;9837;48.888;8.998;2023-04-26T10:15:22;17.90;38.10
19403;DHT22;9837;48.888;8.998;2023-04-26T10:17:48;18.20;38.40
19403;DHT22;9837;48.888;8.998;2023-04-26T10:20:15;18.30;37.60
19403;DHT22;9837;48.888;8.998;2023-04-26T10:22:45;18.40;38.10
19403;DHT22;9837;48.888;8.998;2023-04-26T10:30:10;18.50;35.10
19403;DHT22;9837;48.888;8.998;2023-04-26T10:35:21;18.70;34.40
19403;DHT22;9837;48.888;8.998;2023-04-26T10:40:32;18.30;36.30
19403;DHT22;9837;48.888;8.998;2023-04-26T10:45:47;18.70;36.50
19403;DHT22;9837;48.888;8.998;2023-04-26T10:48:22;18.50;35.90
19403;DHT22;9837;48.888;8.998;2023-04-26T10:56:09;18.00;36.60
19403;DHT22;9837;48.888;8.998;2023-04-26T10:58:40;18.00;37.20
19403;DHT22;9837;48.888;8.998;2023-04-26T11:01:14;18.90;35.80
19403;DHT22;9837;48.888;8.998;2023-04-26T11:04:27;19.20;35.50
19403;DHT22;9837;48.888;8.998;2023-04-26T11:06:49;19.70;34.30
19403;DHT22;9837;48.888;8.998;2023-04-26T11:09:34;19.50;35.40
19403;DHT22;9837;48.888;8.998;2023-04-26T11:12:03;19.40;33.80
19403;DHT22;9837;48.888;8.998;2023-04-26T11:14:29;19.10;35.70
19403;DHT22;9837;48.888;8.998;2023-04-26T11:16:55;18.80;35.20
19403;DHT22;9837;48.888;8.998;2023-04-26T11:19:21;18.40;35.80
19403;DHT22;9837;48.888;8.998;2023-04-26T11:21:47;18.20;37.30
19403;DHT22;9837;48.888;8.998;2023-04-26T11:24:16;17.90;37.20
19403;DHT22;9837;48.888;8.998;2023-04-26T11:26:41;17.80;37.40
19403;DHT22;9837;48.888;8.998;2023-04-26T11:29:20;17.70;38.80
19403;DHT22;9837;48.888;8.998;2023-04-26T11:31:53;17.90;38.20
19403;DHT22;9837;48.888;8.998;2023-04-26T11:34:20;18.10;35.80
19403;DHT22;9837;48.888;8.998;2023-04-26T11:36:47;18.50;37.60
19403;DHT22;9837;48.888;8.998;2023-04-26T11:39:12;18.20;36.90
19403;DHT22;9837;48.888;8.998;2023-04-26T11:41:38;18.20;37.40
19403;DHT22;9837;48.888;8.998;2023-04-26T11:44:04;18.10;37.30
19403;DHT22;9837;48.888;8.998;2023-04-26T11:46:29;18.20;37.10
19403;DHT22;9837;48.888;8.998;2023-04-26T11:48:55;18.60;36.90
19403;DHT22;9837;48.888;8.998;2023-04-26T11:51:21;18.70;36.30
19403;DHT22;9837;48.888;8.998;2023-04-26T11:53:50;18.40;35.90
19403;DHT22;9837;48.888;8.998;2023-04-26T11:56:17;17.60;36.70
19403;DHT22;9837;48.888;8.998;2023-04-26T11:58:44;17.40;37.10
19403;DHT22;9837;48.888;8.998;2023-04-26T12:01:10;17.70;36.80
19403;DHT22;9837;48.888;8.998;2023-04-26T12:03:36;17.70;37.50
19403;DHT22;9837;48.888;8.998;2023-04-26T12:06:05;18.30;37.50
19403;DHT22;9837;48.888;8.998;2023-04-26T12:08:32;18.70;37.10
19403;DHT22;9837;48.888;8.998;2023-04-26T12:10:59;19.20;36.30
19403;DHT22;9837;48.888;8.998;2023-04-26T12:13:26;19.50;35.10
19403;DHT22;9837;48.888;8.998;2023-04-26T12:15:58;19.60;33.20
19403;DHT22;9837;48.888;8.998;2023-04-26T12:18:31;20.00;35.60
19403;DHT22;9837;48.888;8.998;2023-04-26T12:20:58;20.70;34.60
19403;DHT22;9837;48.888;8.998;2023-04-26T12:23:23;21.20;32.20
19403;DHT22;9837;48.888;8.998;2023-04-26T12:25:54;21.50;32.00
19403;DHT22;9837;48.888;8.998;2023-04-26T12:28:21;21.80;30.80
19403;DHT22;9837;48.888;8.998;2023-04-26T12:30:47;21.60;31.80
19403;DHT22;9837;48.888;8.998;2023-04-26T12:33:12;21.60;32.00
19403;DHT22;9837;48.888;8.998;2023-04-26T12:35:38;21.50;31.20
19403;DHT22;9837;48.888;8.998;2023-04-26T12:38:04;21.40;31.10
19403;DHT22;9837;48.888;8.998;2023-04-26T12:40:30;21.30;30.90
19403;DHT22;9837;48.888;8.998;2023-04-26T12:42:56;21.10;32.60
19403;DHT22;9837;48.888;8.998;2023-04-26T12:45:24;21.20;31.50
19403;DHT22;9837;48.888;8.998;2023-04-26T12:47:52;21.40;32.30
19403;DHT22;9837;48.888;8.998;2023-04-26T12:50:18;21.30;31.80
19403;DHT22;9837;48.888;8.998;2023-04-26T12:52:44;21.10;32.90
19403;DHT22;9837;48.888;8.998;2023-04-26T12:55:11;21.20;32.00
19403;DHT22;9837;48.888;8.998;2023-04-26T12:57:38;20.90;31.60
19403;DHT22;9837;48.888;8.998;2023-04-26T13:00:05;20.90;33.40
19403;DHT22;9837;48.888;8.998;2023-04-26T13:02:32;20.90;33.70
19403;DHT22;9837;48.888;8.998;2023-04-26T13:05:00;20.80;32.20
19403;DHT22;9837;48.888;8.998;2023-04-26T13:07:29;20.60;32.60
19403;DHT22;9837;48.888;8.998;2023-04-26T13:09:55;20.40;32.60
19403;DHT22;9837;48.888;8.998;2023-04-26T13:12:21;20.00;33.80
19403;DHT22;9837;48.888;8.998;2023-04-26T13:14:46;19.80;34.20
19403;DHT22;9837;48.888;8.998;2023-04-26T13:17:12;19.50;34.50
19403;DHT22;9837;48.888;8.998;2023-04-26T13:19:37;19.30;35.00
19403;DHT22;9837;48.888;8.998;2023-04-26T13:22:03;18.70;35.50
19403;DHT22;9837;48.888;8.998;2023-04-26T13:24:30;18.50;36.70
19403;DHT22;9837;48.888;8.998;2023-04-26T13:26:56;18.40;36.70
19403;DHT22;9837;48.888;8.998;2023-04-26T13:29:22;18.50;36.30
19403;DHT22;9837;48.888;8.998;2023-04-26T13:31:48;19.00;35.60
19403;DHT22;9837;48.888;8.998;2023-04-26T13:36:39;19.00;36.80
19403;DHT22;9837;48.888;8.998;2023-04-26T13:39:06;19.20;36.00
19403;DHT22;9837;48.888;8.998;2023-04-26T13:41:32;19.60;37.30
19403;DHT22;9837;48.888;8.998;2023-04-26T13:44:00;19.80;35.10
19403;DHT22;9837;48.888;8.998;2023-04-26T13:46:26;20.00;34.70
19403;DHT22;9837;48.888;8.998;2023-04-26T13:48:52;20.10;33.70
19403;DHT22;9837;48.888;8.998;2023-04-26T13:51:17;19.70;33.50
19403;DHT22;9837;48.888;8.998;2023-04-26T13:53:43;19.30;34.60
19403;DHT22;9837;48.888;8.998;2023-04-26T13:58:34;18.70;36.70
19403;DHT22;9837;48.888;8.998;2023-04-26T14:01:01;18.30;36.80
19403;DHT22;9837;48.888;8.998;2023-04-26T14:03:27;17.80;37.20
19403;DHT22;9837;48.888;8.998;2023-04-26T14:05:53;17.40;38.00
19403;DHT22;9837;48.888;8.998;2023-04-26T14:08:19;17.70;38.50
19403;DHT22;9837;48.888;8.998;2023-04-26T14:10:45;18.20;37.80
19403;DHT22;9837;48.888;8.998;2023-04-26T14:13:11;18.40;36.70
19403;DHT22;9837;48.888;8.998;2023-04-26T14:15:36;18.70;37.20
19403;DHT22;9837;48.888;8.998;2023-04-26T14:18:02;18.80;36.30
19403;DHT22;9837;48.888;8.998;2023-04-26T14:20:29;19.20;38.00
19403;DHT22;9837;48.888;8.998;2023-04-26T14:22:54;19.20;36.10
19403;DHT22;9837;48.888;8.998;2023-04-26T14:25:20;19.00;36.30
19403;DHT22;9837;48.888;8.998;2023-04-26T14:27:45;18.60;36.70
19403;DHT22;9837;48.888;8.998;2023-04-26T14:30:11;18.60;37.50
19403;DHT22;9837;48.888;8.998;2023-04-26T14:35:03;18.60;36.40
19403;DHT22;9837;48.888;8.998;2023-04-26T14:37:29;18.20;36.90
19403;DHT22;9837;48.888;8.998;2023-04-26T14:39:54;18.10;38.60
19403;DHT22;9837;48.888;8.998;2023-04-26T14:44:46;18.70;37.10
19403;DHT22;9837;48.888;8.998;2023-04-26T14:49:37;19.60;36.40
19403;DHT22;9837;48.888;8.998;2023-04-26T14:52:03;19.90;35.50
19403;DHT22;9837;48.888;8.998;2023-04-26T14:54:29;19.50;34.50
19403;DHT22;9837;48.888;8.998;2023-04-26T14:56:54;18.80;36.50
19403;DHT22;9837;48.888;8.998;2023-04-26T14:59:20;18.90;36.30
19403;DHT22;9837;48.888;8.998;2023-04-26T15:04:12;18.20;37.70
19403;DHT22;9837;48.888;8.998;2023-04-26T15:06:37;18.40;37.60
19403;DHT22;9837;48.888;8.998;2023-04-26T15:09:03;18.60;36.90
19403;DHT22;9837;48.888;8.998;2023-04-26T15:11:32;18.90;38.00
19403;DHT22;9837;48.888;8.998;2023-04-26T15:13:57;19.10;36.00
19403;DHT22;9837;48.888;8.998;2023-04-26T15:18:49;19.40;36.30
19403;DHT22;9837;48.888;8.998;2023-04-26T15:21:15;19.20;36.10
19403;DHT22;9837;48.888;8.998;2023-04-26T15:23:41;19.30;35.00
19403;DHT22;9837;48.888;8.998;2023-04-26T15:26:07;19.30;35.60
19403;DHT22;9837;48.888;8.998;2023-04-26T15:28:33;19.30;37.20
19403;DHT22;9837;48.888;8.998;2023-04-26T15:31:07;19.60;36.60
19403;DHT22;9837;48.888;8.998;2023-04-26T15:33:34;19.60;35.40
19403;DHT22;9837;48.888;8.998;2023-04-26T15:36:00;19.40;35.10
19403;DHT22;9837;48.888;8.998;2023-04-26T15:38:25;19.50;35.70
19403;DHT22;9837;48.888;8.998;2023-04-26T15:40:51;19.70;34.00
19403;DHT22;9837;48.888;8.998;2023-04-26T15:45:43;19.90;35.40
19403;DHT22;9837;48.888;8.998;2023-04-26T15:48:12;19.90;34.60
19403;DHT22;9837;48.888;8.998;2023-04-26T15:53:04;20.00;34.10
19403;DHT22;9837;48.888;8.998;2023-04-26T15:55:32;20.00;34.00
19403;DHT22;9837;48.888;8.998;2023-04-26T15:57:58;19.80;34.50
19403;DHT22;9837;48.888;8.998;2023-04-26T16:00:24;19.80;35.40
19403;DHT22;9837;48.888;8.998;2023-04-26T16:02:51;19.90;35.20
19403;DHT22;9837;48.888;8.998;2023-04-26T16:05:16;19.50;35.60
19403;DHT22;9837;48.888;8.998;2023-04-26T16:07:42;19.10;35.30
19403;DHT22;9837;48.888;8.998;2023-04-26T16:10:08;19.30;37.10
19403;DHT22;9837;48.888;8.998;2023-04-26T16:12:35;19.40;35.80
19403;DHT22;9837;48.888;8.998;2023-04-26T16:15:08;19.20;35.40
19403;DHT22;9837;48.888;8.998;2023-04-26T16:20:01;19.40;36.00
19403;DHT22;9837;48.888;8.998;2023-04-26T16:22:30;19.40;35.40
19403;DHT22;9837;48.888;8.998;2023-04-26T16:24:57;19.50;35.30
19403;DHT22;9837;48.888;8.998;2023-04-26T16:29:51;19.40;36.00
19403;DHT22;9837;48.888;8.998;2023-04-26T16:32:16;19.20;36.60
19403;DHT22;9837;48.888;8.998;2023-04-26T16:34:42;19.20;37.10
19403;DHT22;9837;48.888;8.998;2023-04-26T16:37:07;19.30;36.20
19403;DHT22;9837;48.888;8.998;2023-04-26T16:39:33;19.30;35.90
19403;DHT22;9837;48.888;8.998;2023-04-26T16:42:00;19.20;36.30
19403;DHT22;9837;48.888;8.998;2023-04-26T16:46:52;19.10;36.40
19403;DHT22;9837;48.888;8.998;2023-04-26T16:49:18;19.00;36.20
19403;DHT22;9837;48.888;8.998;2023-04-26T16:51:43;18.70;36.30
19403;DHT22;9837;48.888;8.998;2023-04-26T16:54:15;18.50;38.10
19403;DHT22;9837;48.888;8.998;2023-04-26T16:56:41;18.50;38.20
19403;DHT22;9837;48.888;8.998;2023-04-26T17:01:32;18.50;37.10
19403;DHT22;9837;48.888;8.998;2023-04-26T17:03:58;18.20;38.20
19403;DHT22;9837;48.888;8.998;2023-04-26T17:06:23;18.10;38.40
19403;DHT22;9837;48.888;8.998;2023-04-26T17:08:49;18.00;39.00
19403;DHT22;9837;48.888;8.998;2023-04-26T17:11:15;18.00;39.00
19403;DHT22;9837;48.888;8.998;2023-04-26T17:13:40;17.70;38.80
19403;DHT22;9837;48.888;8.998;2023-04-26T17:16:06;17.50;39.50
19403;DHT22;9837;48.888;8.998;2023-04-26T17:20:57;17.30;40.30
19403;DHT22;9837;48.888;8.998;2023-04-26T17:23:23;17.30;40.40
19403;DHT22;9837;48.888;8.998;2023-04-26T17:28:15;17.10;40.20
19403;DHT22;9837;48.888;8.998;2023-04-26T17:30:40;17.20;40.00
19403;DHT22;9837;48.888;8.998;2023-04-26T17:33:06;17.30;40.00
19403;DHT22;9837;48.888;8.998;2023-04-26T17:35:32;17.30;40.30
19403;DHT22;9837;48.888;8.998;2023-04-26T17:37:58;17.40;40.10